createdAt,value
2017-08-11T00:00:10.157Z,0
2017-08-11T00:00:50.548Z,0
2017-08-11T00:01:30.950Z,0
2017-08-11T00:02:11.359Z,0
2017-08-11T00:02:51.712Z,0
2017-08-11T00:03:32.125Z,0
2017-08-11T00:04:12.518Z,0
2017-08-11T00:04:52.933Z,0
2017-08-11T00:05:33.326Z,0
2017-08-11T00:06:13.725Z,0
2017-08-11T00:06:54.187Z,0
2017-08-11T00:07:34.545Z,0
2017-08-11T00:08:14.972Z,0
2017-08-11T00:08:55.345Z,0
2017-08-11T00:09:35.790Z,0
2017-08-11T00:10:16.148Z,0
2017-08-11T00:10:56.568Z,0
2017-08-11T00:11:36.926Z,0
2017-08-11T00:12:17.366Z,0
2017-08-11T00:12:57.755Z,0
2017-08-11T00:13:38.156Z,0
2017-08-11T00:14:18.545Z,0
2017-08-11T00:14:58.921Z,0
2017-08-11T00:15:39.324Z,0
2017-08-11T00:16:19.749Z,0
2017-08-11T00:17:00.114Z,0
2017-08-11T00:17:40.524Z,0
2017-08-11T00:18:20.964Z,0
2017-08-11T00:19:01.354Z,0
2017-08-11T00:19:41.773Z,0
2017-08-11T00:20:22.173Z,0
2017-08-11T00:21:02.583Z,0
2017-08-11T00:21:42.975Z,0
2017-08-11T00:22:23.427Z,0
2017-08-11T00:23:03.745Z,0
2017-08-11T00:23:44.156Z,0
2017-08-11T00:24:24.525Z,0
2017-08-11T00:25:08.029Z,0
2017-08-11T00:25:48.326Z,0
2017-08-11T00:26:28.727Z,0
2017-08-11T00:27:09.125Z,0
2017-08-11T00:27:49.504Z,0
2017-08-11T00:28:29.929Z,0
2017-08-11T00:29:10.289Z,0
2017-08-11T00:29:50.758Z,0
2017-08-11T00:30:31.181Z,0
2017-08-11T00:31:11.574Z,0
2017-08-11T00:31:51.998Z,0
2017-08-11T00:32:32.384Z,0
2017-08-11T00:33:12.795Z,0
2017-08-11T00:33:53.257Z,0
2017-08-11T00:34:33.690Z,0
2017-08-11T00:35:14.101Z,0
2017-08-11T00:35:54.499Z,0
2017-08-11T00:36:34.922Z,0
2017-08-11T00:37:15.360Z,0
2017-08-11T00:37:55.752Z,0
2017-08-11T00:38:36.114Z,0
2017-08-11T00:39:16.558Z,0
2017-08-11T00:39:57.032Z,0
2017-08-11T00:40:37.378Z,0
2017-08-11T00:41:17.788Z,0
2017-08-11T00:41:58.141Z,0
2017-08-11T00:42:38.586Z,0
2017-08-11T00:43:18.953Z,0
2017-08-11T00:43:59.394Z,0
2017-08-11T00:44:39.774Z,0
2017-08-11T00:45:20.181Z,0
2017-08-11T00:46:00.564Z,0
2017-08-11T00:46:41.016Z,0
2017-08-11T00:47:21.435Z,0
2017-08-11T00:48:01.863Z,0
2017-08-11T00:48:42.235Z,0
2017-08-11T00:49:22.668Z,0
2017-08-11T00:50:03.160Z,0
2017-08-11T00:50:43.599Z,0
2017-08-11T00:51:24.024Z,0
2017-08-11T00:52:04.436Z,0
2017-08-11T00:52:44.825Z,0
2017-08-11T00:53:25.291Z,0
2017-08-11T00:54:05.700Z,0
2017-08-11T00:54:46.087Z,0
2017-08-11T00:55:26.504Z,0
2017-08-11T00:56:06.964Z,0
2017-08-11T00:56:47.382Z,0
2017-08-11T00:57:27.793Z,0
2017-08-11T00:58:08.194Z,0
2017-08-11T00:58:48.598Z,0
2017-08-11T00:59:29.025Z,0
2017-08-11T01:00:09.450Z,0
2017-08-11T01:04:47.589Z,0
2017-08-11T01:05:46.560Z,0
2017-08-11T01:06:43.984Z,0
2017-08-11T01:07:42.317Z,0
2017-08-11T01:08:38.785Z,0
2017-08-11T01:09:34.763Z,0
2017-08-11T01:10:32.740Z,0
2017-08-11T01:11:29.156Z,0
2017-08-11T01:12:24.648Z,0
2017-08-11T01:13:23.028Z,0
2017-08-11T01:14:19.691Z,0
2017-08-11T01:15:20.092Z,0
2017-08-11T01:16:11.600Z,0
2017-08-11T01:16:56.422Z,0
2017-08-11T01:17:36.717Z,0
2017-08-11T01:18:17.034Z,0
2017-08-11T01:19:04.250Z,0
2017-08-11T01:21:08.768Z,0
2017-08-11T01:21:49.305Z,0
2017-08-11T01:22:29.722Z,0
2017-08-11T01:23:10.097Z,0
2017-08-11T01:23:50.522Z,0
2017-08-11T01:24:30.980Z,0
2017-08-11T01:25:11.422Z,0
2017-08-11T01:25:51.785Z,0
2017-08-11T01:26:32.384Z,0
2017-08-11T01:27:12.955Z,0
2017-08-11T01:27:53.381Z,0
2017-08-11T01:28:33.749Z,0
2017-08-11T01:29:14.205Z,0
2017-08-11T01:29:54.557Z,0
2017-08-11T01:30:34.923Z,0
2017-08-11T01:31:15.429Z,0
2017-08-11T01:31:55.846Z,0
2017-08-11T01:32:36.314Z,0
2017-08-11T01:33:16.901Z,0
2017-08-11T01:33:57.546Z,0
2017-08-11T01:34:39.406Z,0
2017-08-11T01:35:19.712Z,0
2017-08-11T01:36:00.127Z,0
2017-08-11T01:36:40.554Z,0
2017-08-11T01:37:21.038Z,0
2017-08-11T01:38:01.438Z,0
2017-08-11T01:38:41.829Z,0
2017-08-11T01:39:22.319Z,0
2017-08-11T01:40:02.721Z,0
2017-08-11T01:40:43.161Z,0
2017-08-11T01:41:23.495Z,0
2017-08-11T01:42:03.955Z,0
2017-08-11T01:42:44.323Z,0
2017-08-11T01:43:24.717Z,0
2017-08-11T01:44:05.186Z,0
2017-08-11T01:44:45.592Z,0
2017-08-11T01:45:26.025Z,0
2017-08-11T01:46:06.413Z,0
2017-08-11T01:46:46.785Z,0
2017-08-11T01:47:27.204Z,0
2017-08-11T01:48:07.602Z,0
2017-08-11T01:48:48.043Z,0
2017-08-11T01:49:28.508Z,0
2017-08-11T01:50:08.990Z,0
2017-08-11T01:50:49.358Z,0
2017-08-11T01:51:29.756Z,0
2017-08-11T01:52:10.134Z,0
2017-08-11T01:52:50.733Z,0
2017-08-11T01:53:31.081Z,0
2017-08-11T01:54:11.753Z,0
2017-08-11T01:54:52.242Z,0
2017-08-11T01:55:32.948Z,0
2017-08-11T01:56:13.442Z,0
2017-08-11T01:56:53.911Z,0
2017-08-11T01:57:34.229Z,0
2017-08-11T01:58:14.669Z,0
2017-08-11T01:58:55.111Z,0
2017-08-11T01:59:35.504Z,0
2017-08-11T02:00:16.026Z,0
2017-08-11T02:00:56.385Z,0
2017-08-11T02:01:36.741Z,0
2017-08-11T02:02:17.291Z,0
2017-08-11T02:02:57.752Z,0
2017-08-11T02:03:38.162Z,0
2017-08-11T02:04:18.532Z,0
2017-08-11T02:04:58.895Z,0
2017-08-11T02:05:39.339Z,0
2017-08-11T02:06:19.984Z,0
2017-08-11T02:07:00.421Z,0
2017-08-11T02:07:40.866Z,0
2017-08-11T02:08:21.245Z,0
2017-08-11T02:09:01.774Z,0
2017-08-11T02:09:42.345Z,0
2017-08-11T02:10:22.791Z,0
2017-08-11T02:11:03.289Z,0
2017-08-11T02:11:43.669Z,0
2017-08-11T02:12:24.112Z,0
2017-08-11T02:13:04.544Z,0
2017-08-11T02:13:44.993Z,0
2017-08-11T02:14:25.474Z,0
2017-08-11T02:15:05.741Z,0
2017-08-11T02:15:46.226Z,0
2017-08-11T02:16:26.881Z,0
2017-08-11T02:17:07.466Z,0
2017-08-11T02:17:47.891Z,0
2017-08-11T02:18:28.272Z,0
2017-08-11T02:19:08.679Z,0
2017-08-11T02:19:49.227Z,0
2017-08-11T02:20:29.610Z,0
2017-08-11T02:21:10.077Z,0
2017-08-11T02:21:50.518Z,0
2017-08-11T02:22:32.035Z,0
2017-08-11T02:23:12.498Z,0
2017-08-11T02:23:53.776Z,0
2017-08-11T02:24:34.232Z,0
2017-08-11T02:25:15.913Z,0
2017-08-11T02:25:56.428Z,0
2017-08-11T02:26:36.813Z,0
2017-08-11T02:27:17.914Z,0
2017-08-11T02:27:58.329Z,0
2017-08-11T02:28:40.737Z,0
2017-08-11T02:29:21.138Z,0
2017-08-11T02:30:02.025Z,0
2017-08-11T02:30:42.430Z,0
2017-08-11T02:31:23.737Z,0
2017-08-11T02:32:04.231Z,0
2017-08-11T02:32:44.613Z,0
2017-08-11T02:33:26.852Z,0
2017-08-11T02:34:07.353Z,0
2017-08-11T02:34:47.813Z,0
2017-08-11T02:35:28.536Z,0
2017-08-11T02:36:10.292Z,0
2017-08-11T02:36:50.019Z,0
2017-08-11T02:37:31.350Z,0
2017-08-11T02:38:11.711Z,0
2017-08-11T02:38:52.571Z,0
2017-08-11T02:39:32.934Z,0
2017-08-11T02:40:13.848Z,0
2017-08-11T02:40:56.469Z,0
2017-08-11T02:41:37.455Z,0
2017-08-11T02:42:17.986Z,0
2017-08-11T02:43:01.262Z,0
2017-08-11T02:43:41.650Z,0
2017-08-11T02:44:22.079Z,0
2017-08-11T02:45:02.558Z,0
2017-08-11T02:45:44.584Z,0
2017-08-11T02:46:25.101Z,0
2017-08-11T02:47:05.735Z,0
2017-08-11T02:47:46.222Z,0
2017-08-11T02:48:26.588Z,0
2017-08-11T02:49:07.072Z,0
2017-08-11T02:49:47.510Z,0
2017-08-11T02:50:28.134Z,0
2017-08-11T02:51:09.122Z,0
2017-08-11T02:51:49.446Z,0
2017-08-11T02:52:31.667Z,0
2017-08-11T02:53:12.038Z,0
2017-08-11T02:53:54.002Z,0
2017-08-11T02:54:34.426Z,0
2017-08-11T02:55:15.061Z,0
2017-08-11T02:55:56.250Z,0
2017-08-11T02:56:36.684Z,0
2017-08-11T02:57:17.098Z,0
2017-08-11T02:57:57.811Z,0
2017-08-11T02:58:38.828Z,0
2017-08-11T02:59:19.197Z,0
2017-08-11T03:00:00.148Z,0
2017-08-11T03:00:40.236Z,0
2017-08-11T03:01:21.919Z,0
2017-08-11T03:02:02.957Z,0
2017-08-11T03:02:42.756Z,0
2017-08-11T03:03:23.210Z,0
2017-08-11T03:04:03.598Z,0
2017-08-11T03:04:45.247Z,0
2017-08-11T03:05:25.653Z,0
2017-08-11T03:06:06.083Z,0
2017-08-11T03:06:46.537Z,0
2017-08-11T03:07:26.866Z,0
2017-08-11T03:08:08.825Z,0
2017-08-11T03:08:49.193Z,0
2017-08-11T03:09:29.597Z,0
2017-08-11T03:10:10.112Z,0
2017-08-11T03:10:51.869Z,0
2017-08-11T03:11:33.962Z,0
2017-08-11T03:12:14.679Z,0
2017-08-11T03:12:58.662Z,0
2017-08-11T03:13:42.251Z,0
2017-08-11T03:14:24.177Z,0
2017-08-11T03:15:04.165Z,0
2017-08-11T03:15:44.549Z,0
2017-08-11T03:16:26.180Z,0
2017-08-11T03:17:06.437Z,0
2017-08-11T03:17:46.896Z,0
2017-08-11T03:18:27.882Z,0
2017-08-11T03:19:08.405Z,0
2017-08-11T03:19:49.274Z,0
2017-08-11T03:20:29.570Z,0
2017-08-11T03:21:10.434Z,0
2017-08-11T03:21:50.689Z,0
2017-08-11T03:22:31.076Z,0
2017-08-11T03:23:12.356Z,0
2017-08-11T03:23:52.169Z,0
2017-08-11T03:24:33.487Z,0
2017-08-11T03:25:13.990Z,0
2017-08-11T03:25:54.408Z,0
2017-08-11T03:26:34.880Z,0
2017-08-11T03:27:15.328Z,0
2017-08-11T03:27:55.817Z,0
2017-08-11T03:28:36.204Z,0
2017-08-11T03:29:18.596Z,0
2017-08-11T03:29:59.145Z,0
2017-08-11T03:30:39.656Z,0
2017-08-11T03:31:20.168Z,0
2017-08-11T03:32:00.633Z,0
2017-08-11T03:32:41.178Z,0
2017-08-11T03:33:21.537Z,0
2017-08-11T03:34:02.005Z,0
2017-08-11T03:34:43.041Z,0
2017-08-11T03:35:23.402Z,0
2017-08-11T03:36:03.819Z,0
2017-08-11T03:36:44.246Z,0
2017-08-11T03:37:24.912Z,0
2017-08-11T03:38:06.053Z,0
2017-08-11T03:38:45.761Z,0
2017-08-11T03:39:27.768Z,0
2017-08-11T03:40:09.184Z,0
2017-08-11T03:40:49.540Z,0
2017-08-11T03:41:29.972Z,0
2017-08-11T03:42:10.579Z,0
2017-08-11T03:42:50.929Z,0
2017-08-11T03:43:31.473Z,0
2017-08-11T03:44:11.980Z,0
2017-08-11T03:46:45.061Z,0
2017-08-11T03:47:26.773Z,0
2017-08-11T03:48:06.584Z,0
2017-08-11T03:48:47.623Z,0
2017-08-11T03:49:28.510Z,0
2017-08-11T03:50:09.109Z,0
2017-08-11T03:50:49.656Z,4
2017-08-11T03:51:30.122Z,4
2017-08-11T03:52:10.441Z,4
2017-08-11T03:52:52.832Z,4
2017-08-11T03:53:33.240Z,4
2017-08-11T03:54:14.030Z,4
2017-08-11T03:54:54.063Z,4
2017-08-11T03:55:35.811Z,4
2017-08-11T03:56:16.051Z,4
2017-08-11T03:56:56.448Z,4
2017-08-11T03:57:36.847Z,4
2017-08-11T03:58:18.483Z,8
2017-08-11T03:58:58.851Z,4
2017-08-11T03:59:39.220Z,8
2017-08-11T04:00:19.623Z,12
2017-08-11T04:01:00.245Z,8
2017-08-11T04:01:41.437Z,8
2017-08-11T04:02:22.311Z,8
2017-08-11T04:03:03.108Z,12
2017-08-11T04:03:44.678Z,12
2017-08-11T04:04:24.999Z,12
2017-08-11T04:05:06.099Z,16
2017-08-11T04:05:45.961Z,16
2017-08-11T04:06:26.270Z,12
2017-08-11T04:07:07.047Z,16
2017-08-11T04:07:47.255Z,12
2017-08-11T04:08:27.604Z,16
2017-08-11T04:09:08.270Z,16
2017-08-11T04:09:48.737Z,16
2017-08-11T04:10:29.204Z,16
2017-08-11T04:11:16.919Z,16
2017-08-11T04:11:57.779Z,20
2017-08-11T04:12:38.357Z,20
2017-08-11T04:13:19.029Z,20
2017-08-11T04:13:59.531Z,24
2017-08-11T04:14:40.087Z,24
2017-08-11T04:15:20.495Z,32
2017-08-11T04:20:25.477Z,36
2017-08-11T04:21:04.872Z,36
2017-08-11T04:21:46.707Z,32
2017-08-11T04:22:26.247Z,40
2017-08-11T04:23:07.073Z,40
2017-08-11T04:23:49.297Z,44
2017-08-11T04:24:29.079Z,44
2017-08-11T04:25:09.637Z,48
2017-08-11T04:25:50.138Z,44
2017-08-11T04:26:30.798Z,40
2017-08-11T04:27:12.489Z,40
2017-08-11T04:27:52.922Z,44
2017-08-11T04:28:35.357Z,44
2017-08-11T04:29:16.317Z,40
2017-08-11T04:29:57.340Z,48
2017-08-11T04:30:38.043Z,48
2017-08-11T04:31:19.409Z,48
2017-08-11T04:31:59.904Z,52
2017-08-11T04:32:40.719Z,60
2017-08-11T04:33:21.822Z,56
2017-08-11T04:34:03.151Z,56
2017-08-11T04:34:43.829Z,52
2017-08-11T04:35:28.193Z,52
2017-08-11T04:36:08.681Z,60
2017-08-11T04:36:49.240Z,64
2017-08-11T04:37:30.242Z,72
2017-08-11T04:38:10.369Z,72
2017-08-11T04:38:51.734Z,76
2017-08-11T04:39:33.929Z,84
2017-08-11T04:40:15.187Z,92
2017-08-11T04:40:56.071Z,92
2017-08-11T04:41:39.161Z,80
2017-08-11T04:42:19.301Z,80
2017-08-11T04:43:00.602Z,84
2017-08-11T04:43:40.832Z,80
2017-08-11T04:44:21.366Z,88
2017-08-11T04:45:02.094Z,116
2017-08-11T04:45:42.559Z,136
2017-08-11T04:46:23.024Z,132
2017-08-11T04:47:04.790Z,128
2017-08-11T04:47:45.863Z,128
2017-08-11T04:48:26.273Z,136
2017-08-11T04:49:10.067Z,148
2017-08-11T04:49:51.403Z,164
2017-08-11T04:50:31.812Z,144
2017-08-11T04:51:12.482Z,144
2017-08-11T04:51:53.466Z,144
2017-08-11T04:52:33.515Z,152
2017-08-11T04:55:01.599Z,176
2017-08-11T04:56:01.132Z,172
2017-08-11T04:56:55.912Z,176
2017-08-11T04:57:51.838Z,180
2017-08-11T04:58:32.734Z,168
2017-08-11T04:59:14.149Z,184
2017-08-11T04:59:56.105Z,172
2017-08-11T05:00:36.458Z,152
2017-08-11T05:01:17.066Z,144
2017-08-11T05:01:58.231Z,148
2017-08-11T05:02:39.573Z,152
2017-08-11T05:03:20.225Z,156
2017-08-11T05:04:00.450Z,152
2017-08-11T05:04:41.177Z,152
2017-08-11T05:05:22.881Z,152
2017-08-11T05:06:03.405Z,168
2017-08-11T05:06:44.511Z,176
2017-08-11T05:07:24.846Z,192
2017-08-11T05:08:08.567Z,208
2017-08-11T05:08:49.255Z,212
2017-08-11T05:09:32.452Z,224
2017-08-11T05:10:13.027Z,228
2017-08-11T05:10:53.341Z,224
2017-08-11T05:11:34.051Z,216
2017-08-11T05:12:15.064Z,212
2017-08-11T05:12:55.343Z,212
2017-08-11T05:13:35.802Z,224
2017-08-11T05:14:18.189Z,244
2017-08-11T05:14:59.552Z,252
2017-08-11T05:15:40.518Z,264
2017-08-11T05:16:23.126Z,280
2017-08-11T05:17:03.188Z,284
2017-08-11T05:17:44.025Z,288
2017-08-11T05:18:24.570Z,288
2017-08-11T05:19:04.957Z,280
2017-08-11T05:19:45.866Z,284
2017-08-11T05:20:26.281Z,280
2017-08-11T05:21:06.669Z,284
2017-08-11T05:21:47.937Z,308
2017-08-11T05:22:28.591Z,316
2017-08-11T05:23:09.151Z,328
2017-08-11T05:23:49.684Z,336
2017-08-11T05:24:30.271Z,396
2017-08-11T05:25:12.490Z,432
2017-08-11T05:25:56.205Z,492
2017-08-11T05:26:37.135Z,508
2017-08-11T05:27:17.344Z,556
2017-08-11T05:27:58.349Z,556
2017-08-11T05:28:46.300Z,572
2017-08-11T05:29:28.278Z,652
2017-08-11T05:30:09.024Z,700
2017-08-11T05:30:50.521Z,772
2017-08-11T05:31:31.606Z,752
2017-08-11T05:32:12.375Z,836
2017-08-11T05:32:55.766Z,824
2017-08-11T05:33:37.124Z,744
2017-08-11T05:34:18.279Z,796
2017-08-11T05:34:58.981Z,776
2017-08-11T05:35:40.835Z,732
2017-08-11T05:36:24.738Z,668
2017-08-11T05:37:26.343Z,624
2017-08-11T05:38:20.113Z,608
2017-08-11T05:39:24.270Z,572
2017-08-11T05:43:02.672Z,584
2017-08-11T05:43:42.030Z,564
2017-08-11T05:44:22.491Z,620
2017-08-11T05:45:02.964Z,624
2017-08-11T05:45:43.535Z,708
2017-08-11T05:46:24.215Z,716
2017-08-11T05:47:04.701Z,704
2017-08-11T05:51:25.251Z,588
2017-08-11T05:52:24.258Z,416
2017-08-11T05:53:22.769Z,408
2017-08-11T05:54:30.986Z,372
2017-08-11T05:55:23.548Z,316
2017-08-11T05:56:04.016Z,284
2017-08-11T05:56:44.358Z,260
2017-08-11T05:57:24.748Z,312
2017-08-11T05:58:05.090Z,412
2017-08-11T05:58:45.478Z,496
2017-08-11T05:59:25.907Z,556
2017-08-11T06:00:06.603Z,584
2017-08-11T06:00:46.854Z,636
2017-08-11T06:01:27.570Z,780
2017-08-11T06:02:07.999Z,848
2017-08-11T06:02:48.524Z,968
2017-08-11T06:03:28.918Z,1096
2017-08-11T06:04:09.720Z,1140
2017-08-11T06:04:50.264Z,1296
2017-08-11T06:05:31.788Z,1356
2017-08-11T06:06:12.205Z,1632
2017-08-11T06:06:52.585Z,1716
2017-08-11T06:07:33.507Z,1896
2017-08-11T06:08:13.962Z,1908
2017-08-11T06:08:54.406Z,1920
2017-08-11T06:09:34.865Z,1780
2017-08-11T06:10:15.170Z,1912
2017-08-11T06:10:55.688Z,1856
2017-08-11T06:11:36.211Z,1852
2017-08-11T06:12:16.536Z,2252
2017-08-11T06:12:56.988Z,2412
2017-08-11T06:13:37.470Z,2080
2017-08-11T06:14:17.948Z,2284
2017-08-11T06:14:58.362Z,2368
2017-08-11T06:15:38.831Z,2368
2017-08-11T06:16:19.284Z,2340
2017-08-11T06:16:59.704Z,2384
2017-08-11T06:17:40.123Z,2572
2017-08-11T06:18:23.899Z,2576
2017-08-11T06:19:04.240Z,2556
2017-08-11T06:19:44.669Z,2480
2017-08-11T06:20:25.061Z,2108
2017-08-11T06:21:05.588Z,1988
2017-08-11T06:21:46.007Z,2044
2017-08-11T06:22:26.473Z,2104
2017-08-11T06:23:06.984Z,2320
2017-08-11T06:23:47.448Z,2096
2017-08-11T06:24:27.825Z,2088
2017-08-11T06:25:08.531Z,1924
2017-08-11T06:25:48.940Z,2352
2017-08-11T06:26:29.432Z,2576
2017-08-11T06:27:09.811Z,2588
2017-08-11T06:27:50.221Z,2740
2017-08-11T06:28:30.713Z,2424
2017-08-11T06:29:11.308Z,1952
2017-08-11T06:29:51.750Z,1944
2017-08-11T06:30:32.214Z,1984
2017-08-11T06:31:12.629Z,1976
2017-08-11T06:31:53.164Z,1920
2017-08-11T06:32:34.644Z,1844
2017-08-11T06:33:17.327Z,2252
2017-08-11T06:33:58.008Z,2592
2017-08-11T06:34:38.494Z,2692
2017-08-11T06:35:19.055Z,2604
2017-08-11T06:35:59.402Z,2460
2017-08-11T06:36:40.039Z,2204
2017-08-11T06:37:20.448Z,1920
2017-08-11T06:38:01.373Z,1660
2017-08-11T06:38:41.346Z,1512
2017-08-11T06:39:21.717Z,1536
2017-08-11T06:40:02.447Z,1708
2017-08-11T06:40:42.780Z,1536
2017-08-11T06:41:23.178Z,1196
2017-08-11T06:42:03.659Z,1124
2017-08-11T06:42:44.076Z,916
2017-08-11T06:43:24.566Z,792
2017-08-11T06:44:04.996Z,700
2017-08-11T06:44:45.346Z,688
2017-08-11T06:45:26.409Z,644
2017-08-11T06:46:07.023Z,684
2017-08-11T06:46:47.415Z,640
2017-08-11T06:47:27.776Z,564
2017-08-11T06:48:08.372Z,560
2017-08-11T06:48:48.680Z,580
2017-08-11T06:49:29.116Z,660
2017-08-11T06:50:09.552Z,612
2017-08-11T06:50:49.979Z,676
2017-08-11T06:51:30.352Z,716
2017-08-11T06:52:11.690Z,796
2017-08-11T06:52:52.127Z,808
2017-08-11T06:53:32.609Z,776
2017-08-11T06:54:14.009Z,752
2017-08-11T06:54:54.609Z,832
2017-08-11T06:55:35.468Z,952
2017-08-11T06:56:15.956Z,1120
2017-08-11T06:56:56.474Z,1360
2017-08-11T06:57:36.908Z,1720
2017-08-11T06:58:17.397Z,2180
2017-08-11T06:58:57.856Z,2448
2017-08-11T06:59:38.207Z,2488
2017-08-11T07:00:18.640Z,2476
2017-08-11T07:00:59.077Z,2512
2017-08-11T07:01:39.396Z,2548
2017-08-11T07:02:19.880Z,2788
2017-08-11T07:03:00.190Z,2952
2017-08-11T07:03:40.734Z,2828
2017-08-11T07:04:21.094Z,2684
2017-08-11T07:05:01.493Z,2608
2017-08-11T07:05:41.893Z,2732
2017-08-11T07:06:22.293Z,2932
2017-08-11T07:07:02.649Z,2836
2017-08-11T07:07:43.137Z,2568
2017-08-11T07:08:23.518Z,2412
2017-08-11T07:09:03.965Z,2356
2017-08-11T07:09:44.360Z,2260
2017-08-11T07:10:24.721Z,2204
2017-08-11T07:11:05.275Z,2284
2017-08-11T07:11:45.599Z,2432
2017-08-11T07:12:26.108Z,2616
2017-08-11T07:13:06.457Z,2752
2017-08-11T07:13:46.846Z,2872
2017-08-11T07:14:27.296Z,2884
2017-08-11T07:15:07.686Z,2864
2017-08-11T07:15:48.076Z,2740
2017-08-11T07:16:28.538Z,2708
2017-08-11T07:17:08.892Z,2656
2017-08-11T07:17:49.321Z,2476
2017-08-11T07:18:29.714Z,2272
2017-08-11T07:19:10.126Z,2268
2017-08-11T07:19:50.588Z,2288
2017-08-11T07:20:30.974Z,2324
2017-08-11T07:21:11.376Z,2316
2017-08-11T07:21:51.825Z,2424
2017-08-11T07:22:32.317Z,2404
2017-08-11T07:25:00.561Z,2712
2017-08-11T07:25:40.925Z,2968
2017-08-11T07:26:21.364Z,3364
2017-08-11T07:27:01.714Z,3076
2017-08-11T07:27:42.111Z,2840
2017-08-11T07:28:22.518Z,2576
2017-08-11T07:29:02.977Z,2508
2017-08-11T07:29:43.329Z,2488
2017-08-11T07:31:58.086Z,2156
2017-08-11T07:34:18.244Z,2612
2017-08-11T07:34:58.614Z,2736
2017-08-11T07:35:39.192Z,2600
2017-08-11T07:36:19.768Z,2540
2017-08-11T07:37:00.165Z,2708
2017-08-11T07:37:40.820Z,2688
2017-08-11T07:38:21.168Z,2928
2017-08-11T07:39:01.632Z,3208
2017-08-11T07:39:42.007Z,3288
2017-08-11T07:41:55.916Z,3296
2017-08-11T07:42:36.351Z,3088
2017-08-11T07:44:50.808Z,3196
2017-08-11T07:45:31.273Z,3456
2017-08-11T07:46:11.656Z,3936
2017-08-11T07:46:52.179Z,4400
2017-08-11T07:47:32.563Z,5252
2017-08-11T07:48:13.698Z,4816
2017-08-11T07:48:54.746Z,4076
2017-08-11T07:49:35.840Z,3684
2017-08-11T07:50:16.410Z,3236
2017-08-11T07:50:56.641Z,3772
2017-08-11T07:51:37.090Z,3684
2017-08-11T07:54:11.674Z,5352
2017-08-11T07:55:05.176Z,6784
2017-08-11T07:55:45.802Z,7276
2017-08-11T07:56:26.114Z,8680
2017-08-11T07:57:06.511Z,9156
2017-08-11T07:57:46.959Z,8868
2017-08-11T07:58:27.378Z,8580
2017-08-11T07:59:07.755Z,8624
2017-08-11T07:59:48.100Z,8572
2017-08-11T08:02:08.599Z,7452
2017-08-11T08:02:48.985Z,7512
2017-08-11T08:03:29.379Z,7748
2017-08-11T08:04:09.947Z,7484
2017-08-11T08:04:50.752Z,7212
2017-08-11T08:05:31.337Z,6956
2017-08-11T08:06:12.106Z,6988
2017-08-11T08:06:52.481Z,7256
2017-08-11T08:07:32.891Z,7392
2017-08-11T08:08:13.235Z,6836
2017-08-11T08:08:53.735Z,5812
2017-08-11T08:09:34.127Z,5300
2017-08-11T08:10:16.534Z,4940
2017-08-11T08:10:56.742Z,4544
2017-08-11T08:11:37.115Z,4600
2017-08-11T08:12:17.565Z,4368
2017-08-11T08:12:58.007Z,3972
2017-08-11T08:13:38.447Z,3364
2017-08-11T08:14:18.886Z,3124
2017-08-11T08:14:59.356Z,3152
2017-08-11T08:15:39.865Z,3368
2017-08-11T08:16:20.196Z,3960
2017-08-11T08:17:00.606Z,4484
2017-08-11T08:25:50.944Z,5332
2017-08-11T08:26:31.415Z,6224
2017-08-11T08:27:11.784Z,6676
2017-08-11T08:27:52.218Z,6288
2017-08-11T08:28:32.647Z,6988
2017-08-11T08:29:13.056Z,7428
2017-08-11T08:29:53.484Z,7116
2017-08-11T08:30:35.014Z,7284
2017-08-11T08:31:15.379Z,7704
2017-08-11T08:31:55.775Z,8020
2017-08-11T08:32:36.320Z,8612
2017-08-11T08:33:16.763Z,10368
2017-08-11T08:33:57.149Z,10316
2017-08-11T08:34:37.496Z,11036
2017-08-11T08:35:17.950Z,11444
2017-08-11T08:35:58.339Z,12252
2017-08-11T08:36:38.736Z,10848
2017-08-11T08:37:19.200Z,9340
2017-08-11T08:37:59.636Z,7104
2017-08-11T08:38:40.142Z,4596
2017-08-11T08:39:20.933Z,3464
2017-08-11T08:40:03.579Z,3432
2017-08-11T08:40:43.976Z,4156
2017-08-11T08:41:24.519Z,4972
2017-08-11T08:42:05.108Z,4888
2017-08-11T08:42:45.487Z,5772
2017-08-11T08:43:26.136Z,4632
2017-08-11T08:44:08.282Z,3236
2017-08-11T08:44:49.337Z,3172
2017-08-11T08:45:30.670Z,3588
2017-08-11T08:46:12.207Z,4272
2017-08-11T08:46:51.664Z,5544
2017-08-11T08:47:32.371Z,6464
2017-08-11T08:48:12.759Z,8108
2017-08-11T08:48:53.156Z,9812
2017-08-11T08:49:33.609Z,11084
2017-08-11T08:50:14.121Z,11192
2017-08-11T08:50:54.689Z,12336
2017-08-11T08:51:35.095Z,11312
2017-08-11T08:52:15.541Z,12196
2017-08-11T08:52:55.992Z,12420
2017-08-11T08:53:36.362Z,12976
2017-08-11T08:54:17.619Z,12336
2017-08-11T08:54:58.276Z,11436
2017-08-11T08:55:38.577Z,10432
2017-08-11T08:56:19.052Z,8720
2017-08-11T08:56:59.458Z,8312
2017-08-11T08:57:40.008Z,7612
2017-08-11T08:58:20.597Z,7388
2017-08-11T08:59:01.587Z,9792
2017-08-11T08:59:42.366Z,9724
2017-08-11T09:00:22.823Z,8612
2017-08-11T09:01:03.232Z,8616
2017-08-11T09:01:43.818Z,11504
2017-08-11T09:02:24.212Z,13028
2017-08-11T09:04:54.029Z,8288
2017-08-11T09:05:34.442Z,7508
2017-08-11T09:06:14.936Z,7044
2017-08-11T09:06:55.308Z,7232
2017-08-11T09:07:35.709Z,7184
2017-08-11T09:08:16.118Z,6472
2017-08-11T09:08:56.524Z,6000
2017-08-11T09:09:36.968Z,6116
2017-08-11T09:10:17.381Z,6044
2017-08-11T09:10:57.917Z,6032
2017-08-11T09:11:38.270Z,6052
2017-08-11T09:12:18.689Z,6052
2017-08-11T09:12:59.175Z,6252
2017-08-11T09:13:39.553Z,5996
2017-08-11T09:14:19.976Z,5564
2017-08-11T09:15:00.620Z,5036
2017-08-11T09:15:41.048Z,4684
2017-08-11T09:16:21.444Z,4268
2017-08-11T09:17:02.317Z,3732
2017-08-11T09:17:42.582Z,3212
2017-08-11T09:18:22.952Z,2952
2017-08-11T09:19:03.508Z,3136
2017-08-11T09:19:43.877Z,3484
2017-08-11T09:20:24.434Z,3728
2017-08-11T09:21:04.819Z,4084
2017-08-11T09:21:45.312Z,4568
2017-08-11T09:22:25.761Z,4772
2017-08-11T09:23:06.352Z,4996
2017-08-11T09:23:46.880Z,4836
2017-08-11T09:24:27.315Z,4716
2017-08-11T09:25:07.849Z,4532
2017-08-11T09:25:48.652Z,4336
2017-08-11T09:26:29.949Z,4008
2017-08-11T09:27:10.519Z,3688
2017-08-11T09:27:51.004Z,3296
2017-08-11T09:28:31.417Z,3068
2017-08-11T09:29:11.845Z,2952
2017-08-11T09:29:52.878Z,2800
2017-08-11T09:30:33.581Z,2496
2017-08-11T09:31:13.941Z,2212
2017-08-11T09:31:54.358Z,2032
2017-08-11T09:32:34.829Z,1924
2017-08-11T09:33:15.321Z,1936
2017-08-11T09:33:55.683Z,1980
2017-08-11T09:34:36.094Z,2160
2017-08-11T09:35:16.781Z,2268
2017-08-11T09:35:58.032Z,2492
2017-08-11T09:36:38.855Z,2696
2017-08-11T09:37:19.519Z,3056
2017-08-11T09:38:01.285Z,3496
2017-08-11T09:38:42.849Z,3356
2017-08-11T09:39:23.240Z,3192
2017-08-11T09:40:03.662Z,3076
2017-08-11T09:40:44.350Z,3128
2017-08-11T09:41:24.813Z,3532
2017-08-11T09:42:05.846Z,3676
2017-08-11T09:42:46.599Z,3644
2017-08-11T09:43:27.254Z,3640
2017-08-11T09:44:07.681Z,3384
2017-08-11T09:44:48.365Z,3404
2017-08-11T09:45:28.814Z,4028
2017-08-11T09:46:09.177Z,4660
2017-08-11T09:46:49.536Z,5692
2017-08-11T09:47:30.875Z,6632
2017-08-11T09:48:11.588Z,7616
2017-08-11T09:48:52.312Z,9168
2017-08-11T09:49:34.018Z,10868
2017-08-11T09:50:14.575Z,13396
2017-08-11T09:50:55.110Z,14640
2017-08-11T09:51:35.476Z,14716
2017-08-11T09:52:17.037Z,14164
2017-08-11T09:52:57.271Z,14408
2017-08-11T09:53:37.931Z,14648
2017-08-11T09:54:18.655Z,14448
2017-08-11T09:54:59.404Z,14748
2017-08-11T09:55:40.124Z,14828
2017-08-11T09:56:20.497Z,14704
2017-08-11T09:57:01.465Z,13848
2017-08-11T09:57:41.859Z,13688
2017-08-11T09:58:22.375Z,13640
2017-08-11T09:59:02.931Z,13004
2017-08-11T09:59:43.401Z,13044
2017-08-11T10:00:23.916Z,12856
2017-08-11T10:01:04.304Z,12324
2017-08-11T10:01:44.863Z,11952
2017-08-11T10:02:25.305Z,11516
2017-08-11T10:03:05.735Z,11360
2017-08-11T10:03:46.184Z,11496
2017-08-11T10:04:27.487Z,11504
2017-08-11T10:05:07.897Z,12028
2017-08-11T10:05:48.432Z,12668
2017-08-11T10:06:28.846Z,12772
2017-08-11T10:07:09.324Z,12944
2017-08-11T10:07:49.718Z,13236
2017-08-11T10:08:30.186Z,13524
2017-08-11T10:09:10.547Z,13676
2017-08-11T10:09:51.154Z,13568
2017-08-11T10:10:31.574Z,13008
2017-08-11T10:11:12.572Z,12088
2017-08-11T10:11:52.744Z,12448
2017-08-11T10:12:33.296Z,12956
2017-08-11T10:13:13.547Z,12884
2017-08-11T10:13:53.908Z,12700
2017-08-11T10:14:34.388Z,12224
2017-08-11T10:15:14.805Z,11984
2017-08-11T10:15:55.156Z,12444
2017-08-11T10:16:35.657Z,12844